createdAt,value
2019-01-02T00:00:31.066Z,10.50
2019-01-02T00:05:37.592Z,22.30
2019-01-02T00:10:43.888Z,10.63
2019-01-02T00:15:50.089Z,17.17
2019-01-02T00:20:56.646Z,15.50
2019-01-02T00:26:03.160Z,14.40
2019-01-02T00:31:09.293Z,13.30
2019-01-02T00:36:15.441Z,20.53
2019-01-02T00:41:21.844Z,22.43
2019-01-02T00:46:27.957Z,11.10
2019-01-02T00:51:35.088Z,20.70
2019-01-02T00:56:41.737Z,7.87
2019-01-02T01:01:48.349Z,25.00
2019-01-02T01:06:55.037Z,18.83
2019-01-02T01:12:01.912Z,7.27
2019-01-02T01:17:08.136Z,10.77
2019-01-02T01:22:14.318Z,27.37
2019-01-02T01:27:20.427Z,10.80
2019-01-02T01:32:26.689Z,14.77
2019-01-02T01:37:33.366Z,11.93
2019-01-02T01:42:39.697Z,10.80
2019-01-02T01:47:45.932Z,15.80
2019-01-02T01:52:52.376Z,15.37
2019-01-02T01:57:58.588Z,11.80
2019-01-02T02:03:04.701Z,15.10
2019-01-02T02:08:11.273Z,25.20
2019-01-02T02:13:17.681Z,16.30
2019-01-02T02:18:23.899Z,24.43
2019-01-02T02:23:30.735Z,12.63
2019-01-02T02:28:37.179Z,17.43
2019-01-02T02:33:43.313Z,13.47
2019-01-02T02:38:50.052Z,13.30
2019-01-02T02:43:56.501Z,11.90
2019-01-02T02:49:03.099Z,14.20
2019-01-02T02:54:09.842Z,14.73
2019-01-02T02:59:16.474Z,15.47
2019-01-02T03:04:23.146Z,19.90
2019-01-02T03:09:29.874Z,16.03
2019-01-02T03:14:36.057Z,31.50
2019-01-02T03:19:42.196Z,8.37
2019-01-02T03:24:48.627Z,22.90
2019-01-02T03:29:55.247Z,22.40
2019-01-02T03:35:01.573Z,16.47
2019-01-02T03:40:08.448Z,18.03
2019-01-02T03:45:16.971Z,13.43
2019-01-02T03:50:24.376Z,14.07
2019-01-02T03:55:30.543Z,16.53
2019-01-02T04:00:36.801Z,21.77
2019-01-02T04:05:43.146Z,15.80
2019-01-02T04:10:49.530Z,9.23
2019-01-02T04:15:55.900Z,15.63
2019-01-02T04:21:02.885Z,13.53
2019-01-02T04:26:09.243Z,12.10
2019-01-02T04:31:15.496Z,18.20
2019-01-02T04:36:21.508Z,12.77
2019-01-02T04:41:27.628Z,16.37
2019-01-02T04:46:33.787Z,23.47
2019-01-02T04:51:40.109Z,10.73
2019-01-02T04:56:46.257Z,19.97
2019-01-02T05:01:53.202Z,11.17
2019-01-02T05:06:59.381Z,5.70
2019-01-02T05:12:05.485Z,8.70
2019-01-02T05:17:11.840Z,7.50
2019-01-02T05:22:18.145Z,9.00
2019-01-02T05:27:24.403Z,18.07
2019-01-02T05:32:30.453Z,23.97
2019-01-02T05:37:36.593Z,22.00
2019-01-02T05:42:42.750Z,21.17
2019-01-02T05:47:49.052Z,21.00
2019-01-02T05:52:55.173Z,15.30
2019-01-02T05:58:01.469Z,12.40
2019-01-02T06:03:07.718Z,13.10
2019-01-02T06:08:15.104Z,11.50
2019-01-02T06:13:21.599Z,24.70
2019-01-02T06:18:27.826Z,23.27
2019-01-02T06:23:33.995Z,16.67
2019-01-02T06:28:40.216Z,18.67
2019-01-02T06:33:46.715Z,29.93
2019-01-02T06:38:52.962Z,15.00
2019-01-02T06:43:59.397Z,13.83
2019-01-02T06:49:05.711Z,20.07
2019-01-02T06:54:12.066Z,22.43
2019-01-02T06:59:18.135Z,22.23
2019-01-02T07:04:24.601Z,19.90
2019-01-02T07:09:30.895Z,17.67
2019-01-02T07:14:37.142Z,22.27
2019-01-02T07:19:43.525Z,24.70
2019-01-02T07:24:49.922Z,22.60
2019-01-02T07:29:56.000Z,21.80
2019-01-02T07:35:55.388Z,16.90
2019-01-02T07:41:51.252Z,18.33
2019-01-02T07:47:38.566Z,22.70
2019-01-02T07:53:06.763Z,19.47
2019-01-02T07:59:06.129Z,33.13
2019-01-02T08:04:58.773Z,23.37
2019-01-02T08:10:56.204Z,16.47
2019-01-02T08:16:32.269Z,26.47
2019-01-02T08:22:14.493Z,31.17
2019-01-02T08:27:55.368Z,28.17
2019-01-02T08:33:56.486Z,26.40
2019-01-02T08:39:45.010Z,21.10
2019-01-02T08:45:34.433Z,28.70
2019-01-02T08:51:10.293Z,31.37
2019-01-02T08:56:51.174Z,49.83
2019-01-02T09:02:22.186Z,26.03
2019-01-02T09:08:04.154Z,34.43
2019-01-02T09:13:57.326Z,18.83
2019-01-02T09:19:46.854Z,25.03
2019-01-02T09:25:26.716Z,21.80
2019-01-02T09:31:10.003Z,28.83
2019-01-02T09:36:51.408Z,24.10
2019-01-02T09:42:28.447Z,24.43
2019-01-02T09:47:57.196Z,26.33
2019-01-02T09:53:49.771Z,21.00
2019-01-02T09:59:43.518Z,33.53
2019-01-02T10:05:27.001Z,25.30
2019-01-02T10:11:20.655Z,20.80
2019-01-02T10:17:04.769Z,19.83
2019-01-02T10:23:02.263Z,16.73
2019-01-02T10:28:57.333Z,20.67
2019-01-02T10:34:26.525Z,19.20
2019-01-02T10:40:13.925Z,27.87
2019-01-02T10:45:44.804Z,9.10
2019-01-02T10:51:48.129Z,12.53
2019-01-02T10:57:45.539Z,9.83
2019-01-02T11:03:18.084Z,6.33
2019-01-02T11:08:47.007Z,11.63
2019-01-02T11:14:27.379Z,7.43
2019-01-02T11:20:19.314Z,5.43
2019-01-02T11:25:56.191Z,6.13
2019-01-02T11:31:46.326Z,2.33
2019-01-02T11:37:12.878Z,5.30
2019-01-02T11:42:46.404Z,11.17
2019-01-02T11:47:53.063Z,2.80
2019-01-02T11:52:59.443Z,9.93
2019-01-02T11:58:06.911Z,4.20
2019-01-02T12:03:13.312Z,4.43
2019-01-02T12:08:19.738Z,8.20
2019-01-02T12:13:26.775Z,7.13
2019-01-02T12:18:33.289Z,11.20
2019-01-02T12:23:42.098Z,7.33
2019-01-02T12:28:48.539Z,7.20
2019-01-02T12:33:54.994Z,3.13
2019-01-02T12:39:01.322Z,6.40
2019-01-02T12:44:08.968Z,6.00
2019-01-02T12:49:15.661Z,2.57
2019-01-02T12:54:22.474Z,6.23
2019-01-02T12:59:29.799Z,3.40
2019-01-02T13:04:51.378Z,3.70
2019-01-02T13:10:28.423Z,7.43
2019-01-02T13:15:53.817Z,6.77
2019-01-02T13:21:09.029Z,2.13
2019-01-02T13:26:42.374Z,8.97
2019-01-02T13:32:03.099Z,4.90
2019-01-02T13:37:34.812Z,2.50
2019-01-02T13:43:20.360Z,7.03
2019-01-02T13:49:05.126Z,2.50
2019-01-02T13:54:11.573Z,3.27
2019-01-02T13:59:18.281Z,2.67
2019-01-02T14:04:25.118Z,0.80
2019-01-02T14:09:31.474Z,4.67
2019-01-02T14:14:38.144Z,5.93
2019-01-02T14:19:44.514Z,1.47
2019-01-02T14:24:50.911Z,6.07
2019-01-02T14:29:57.291Z,5.43
2019-01-02T14:35:03.563Z,1.87
2019-01-02T14:40:09.861Z,4.80
2019-01-02T14:45:16.436Z,11.50
2019-01-02T14:50:22.586Z,5.40
2019-01-02T14:55:28.676Z,3.87
2019-01-02T15:00:35.092Z,2.93
2019-01-02T15:05:41.293Z,6.77
2019-01-02T15:10:47.435Z,2.83
2019-01-02T15:15:53.974Z,7.07
2019-01-02T15:21:00.195Z,6.10
2019-01-02T15:26:06.490Z,2.03
2019-01-02T15:31:14.482Z,2.23
2019-01-02T15:36:20.694Z,4.90
2019-01-02T15:41:27.209Z,17.60
2019-01-02T15:46:34.812Z,2.60
2019-01-02T15:51:40.937Z,5.87
2019-01-02T15:56:48.261Z,3.67
2019-01-02T16:01:55.314Z,4.47
2019-01-02T16:07:01.894Z,2.83
2019-01-02T16:12:10.708Z,4.43
2019-01-02T16:17:17.207Z,12.10
2019-01-02T16:22:23.505Z,5.20
2019-01-02T16:27:34.175Z,2.40
2019-01-02T16:32:40.489Z,4.10
2019-01-02T16:37:46.828Z,3.07
2019-01-02T16:42:53.338Z,5.93
2019-01-02T16:47:59.929Z,3.40
2019-01-02T16:53:06.841Z,4.20
2019-01-02T16:58:13.162Z,6.10
2019-01-02T17:03:22.483Z,1.73
2019-01-02T17:08:29.446Z,6.53
2019-01-02T17:13:37.454Z,4.23
2019-01-02T17:18:43.841Z,15.70
2019-01-02T17:23:50.562Z,2.23
2019-01-02T17:28:57.379Z,4.37
2019-01-02T17:34:03.535Z,3.80
2019-01-02T17:39:09.816Z,7.00
2019-01-02T17:44:16.218Z,2.63
2019-01-02T17:49:22.815Z,1.80
2019-01-02T17:54:29.312Z,3.70
2019-01-02T17:59:36.836Z,8.90
2019-01-02T18:04:43.406Z,7.00
2019-01-02T18:09:51.969Z,2.50
2019-01-02T18:14:58.756Z,3.10
2019-01-02T18:20:07.512Z,2.87
2019-01-02T18:25:16.793Z,2.43
2019-01-02T18:30:23.744Z,2.73
2019-01-02T18:35:29.977Z,4.87
2019-01-02T18:40:36.605Z,0.93
2019-01-02T18:45:43.557Z,2.93
2019-01-02T18:50:50.395Z,5.50
2019-01-02T18:55:57.234Z,4.33
2019-01-02T19:01:03.952Z,11.00
2019-01-02T19:06:10.270Z,0.70
2019-01-02T19:11:17.745Z,5.90
2019-01-02T19:16:24.192Z,2.47
2019-01-02T19:21:30.439Z,2.53
2019-01-02T19:26:39.476Z,2.23
2019-01-02T19:31:46.567Z,4.17
2019-01-02T19:36:53.403Z,4.20
2019-01-02T19:42:01.145Z,3.70
2019-01-02T19:47:07.824Z,0.80
2019-01-02T19:52:15.043Z,2.73
2019-01-02T19:57:24.455Z,1.33
2019-01-02T20:02:30.717Z,2.83
2019-01-02T20:07:37.021Z,2.90
2019-01-02T20:12:44.312Z,0.77
2019-01-02T20:17:53.608Z,0.93
2019-01-02T20:22:59.887Z,1.53
2019-01-02T20:28:06.199Z,2.00
2019-01-02T20:33:12.620Z,1.37
2019-01-02T20:38:18.874Z,4.87
2019-01-02T20:43:25.741Z,1.47
2019-01-02T20:48:32.182Z,6.50
2019-01-02T20:53:38.385Z,9.17
2019-01-02T20:58:45.103Z,1.20
2019-01-02T21:03:51.942Z,1.07
2019-01-02T21:08:58.183Z,4.43
2019-01-02T21:14:04.624Z,3.87
2019-01-02T21:19:10.847Z,1.50
2019-01-02T21:24:17.332Z,1.80
2019-01-02T21:29:23.601Z,4.80
2019-01-02T21:34:29.973Z,3.93
2019-01-02T21:39:36.233Z,1.80
2019-01-02T21:44:42.500Z,0.50
2019-01-02T21:49:49.185Z,5.63
2019-01-02T21:54:55.758Z,1.43
2019-01-02T22:00:02.162Z,2.90
2019-01-02T22:05:08.672Z,4.03
2019-01-02T22:10:15.209Z,2.00
2019-01-02T22:15:21.385Z,1.60
2019-01-02T22:20:27.862Z,2.57
2019-01-02T22:25:35.698Z,1.13
2019-01-02T22:30:43.257Z,2.13
2019-01-02T22:35:49.567Z,3.83
2019-01-02T22:40:56.003Z,1.53
2019-01-02T22:46:02.975Z,1.87
2019-01-02T22:51:09.719Z,2.10
2019-01-02T22:56:16.416Z,3.13
2019-01-02T23:01:37.706Z,0.97
2019-01-02T23:07:10.044Z,1.37
2019-01-02T23:12:33.872Z,3.90
2019-01-02T23:17:57.535Z,6.90
2019-01-02T23:23:27.538Z,1.37
2019-01-02T23:28:59.084Z,4.10
2019-01-02T23:34:35.302Z,2.33
2019-01-02T23:40:00.731Z,0.80
2019-01-02T23:45:25.911Z,1.63
2019-01-02T23:51:03.369Z,1.20
2019-01-02T23:56:29.274Z,7.87
